General Aviation Weather

Text Reports

Enter one or more of the following location identifiers separated by a space:

Zip Code, Four-Character ICAO or Three-Character IATA airport codes.

METAR - Aviation Routine Weather Report
OOSA - Salalah,
Updated at 11:50 AM GMT on February 09, 2016 (3:50 PM GST):
METAR OOSA 091150Z 17009KT 130V200 CAVOK 26/14 Q1015 NOSIG
TAF - Terminal Area Forecast
OOSA - Salalah,
Updated at 11:50 AM GMT on February 09, 2016 (3:50 PM GST):
TAF OOSA 091150Z 0912/1018 17012KT CAVOK BECMG 0916/0922 VRB03KT
BECMG 1000/1002 02015KT BECMG 1011/1013 17013KT=
Decoded:
ID: OOSA   Salalah, OM
REPORT TIME:  9 11:50
VALID TIME: 9 February AT 12:00Z to 10 February AT 18:00Z.
INITIAL WX
   WINDS: 170 AT 12
   WEATHER: CAVOK
WX BECOMING FROM 16Z TO 22Z
   WIND: VARIABLE AT 3
WX BECOMING FROM 00Z TO 02Z
   WINDS: 20 AT 15
WX BECOMING FROM 11Z TO 13Z
   WINDS: 170 AT 13
   COMMENTS: = 

CORRECTION
INITIAL WX
   WEATHER: KILM
   COMMENTS: 091159Z 0912/1012 26010KT P6SM FEW040 
NEW WX STARTING: 14:00Z
   WINDS: 260 AT 14 GUST 24
   VISIBILITY: >6.0 MILES
   CLOUDS: 50 SCT
   CLOUDS: 120 SCT
NEW WX STARTING: 01:00Z
   WINDS: 250 AT 11 GUST 18
   VISIBILITY: >6.0 MILES
   CLOUDS: 120 BKN
NEW WX STARTING: 07:00Z
   WINDS: 260 AT 9
   VISIBILITY: >6.0 MILES
   CLOUDS: CLEAR
   COMMENTS: = 

CORRECTION
INITIAL WX
   WEATHER: KILM
   COMMENTS: 091159Z 0912/1012 26010KT P6SM FEW040 
NEW WX STARTING: 14:00Z
   WINDS: 260 AT 14 GUST 24
   VISIBILITY: >6.0 MILES
   CLOUDS: 50 SCT
   CLOUDS: 120 SCT
NEW WX STARTING: 01:00Z
   WINDS: 250 AT 11 GUST 18
   VISIBILITY: >6.0 MILES
   CLOUDS: 120 BKN
NEW WX STARTING: 07:00Z
   WINDS: 260 AT 9
   VISIBILITY: >6.0 MILES
   CLOUDS: CLEAR
   COMMENTS: = 

CORRECTION
INITIAL WX
   WEATHER: KILM
   COMMENTS: 091159Z 0912/1012 26010KT P6SM FEW040 
NEW WX STARTING: 14:00Z
   WINDS: 260 AT 14 GUST 24
   VISIBILITY: >6.0 MILES
   CLOUDS: 50 SCT
   CLOUDS: 120 SCT
NEW WX STARTING: 01:00Z
   WINDS: 250 AT 11 GUST 18
   VISIBILITY: >6.0 MILES
   CLOUDS: 120 BKN
NEW WX STARTING: 07:00Z
   WINDS: 260 AT 9
   VISIBILITY: >6.0 MILES
   CLOUDS: CLEAR
   COMMENTS: = 

PIREP - Pilot Weather Report
OOSA - Salalah,
Updated at 11:50 AM GMT on February 09, 2016 (3:50 PM GST):
No PIREP is currently available for this location.
AIRMET - Airmens Meteorological Information
OOSA - Salalah,
Updated at 11:50 AM GMT on February 09, 2016 (3:50 PM GST):
No AIRMET is currently available for this location.
SIGMET - Significant Meteorological Information
OOSA - Salalah,
Updated at 11:50 AM GMT on February 09, 2016 (3:50 PM GST):
No SIGMET is currently available for this location.
NOTAM - Notice to Airmen
OOSA - Salalah,
Updated at 11:50 AM GMT on February 09, 2016 (3:50 PM GST):
No NOTAM is currently available for this location.
Forecast Area
OOSA - Salalah,
Updated at 11:50 AM GMT on February 09, 2016 (3:50 PM GST):
No NOTAM is currently available for this location.
Aviation Weather Maps